41.8°F
Current conditions from King Hill
Updated every 5 minutes
 
  Tuesday February 20, 2018

Observations for Westford

Westford

44° 37' 39"N, 73° 02' 29"W, Elevation 850 ft.
Eastern Time

Hourly observations for the last 72 hours

Date Time Temperature (°F) Humi-
dity

(%)
Wind
(mph)
Pressure Rain (in)
Air Dew 6 Hour 1 Hr 3 Hr 6 Hr Day
Alt
(in)
Sea
Level

(mb)
Max Min
20 04:00 41.8 40.7 96 SSW 5 G 13 30.10 1019.5 0.00
20 03:00 41.0 39.7 95 SSW 8 G 13 30.10 1019.4 0.00
20 02:00 40.8 39.5 95 SSW 6 G 19 30.11 1019.8 0.00
20 01:00 40.1 38.5 40.2 37.8 94 SSW 7 G 21 30.11 1019.7 0.00
20 00:00 39.5 37.6 93 SSW 6 G 16 30.12 1020.1 0.00
19 23:00 38.7 36.6 92 S 6 G 13 30.13 1020.5 0.00
19 22:00 38.5 35.5 89 SSW 5 G 19 30.15 1021.1 0.00
19 21:00 38.1 34.6 87 S 8 G 20 30.14 1020.6 0.00
19 20:00 37.8 33.4 84 S 9 G 20 30.15 1021.0 0.00
19 19:00 38.0 32.1 42.8 36.7 79 SSW 6 G 24 30.16 1021.2 0.00
19 18:00 37.7 32.1 80 SSW 3 G 12 30.16 1021.4 0.00
19 17:00 36.8 33.0 86 S 4 G 15 30.15 1020.9 0.00
19 16:00 40.8 30.3 66 SSW 4 G 13 30.17 1021.8 0.00
19 15:00 42.0 29.9 62 S 7 G 24 30.18 1022.1 0.00
19 14:00 41.9 29.4 61 SSW 7 G 18 30.19 1022.4 0.00
19 13:00 40.4 28.0 40.4 29.6 61 SSW 4 G 20 30.22 1023.3 0.00
19 12:00 39.4 26.7 60 SSW 7 G 23 30.24 1023.9 0.00
19 11:00 36.1 24.7 63 SSW 9 G 29 30.27 1025.1 0.00
19 10:00 35.4 24.1 63 SSW 9 G 29 30.28 1025.5 0.00
19 09:00 33.8 22.5 63 S 14 G 33 30.31 1026.5 0.00
19 08:00 31.5 21.8 67 S 9 G 31 30.31 1026.5 0.00
19 07:00 29.6 21.0 29.6 20.9 70 SSW 6 G 16 30.32 1026.7 0.00
19 06:00 28.3 20.1 71 SSW 4 G 10 30.35 1027.7 0.00
19 05:00 28.3 20.8 73 S 7 G 15 30.34 1027.5 0.00
19 04:00 26.1 19.9 77 Calm 30.34 1027.6 0.00
19 03:00 27.5 20.6 75 S 4 G 9 30.34 1027.5 0.00
19 02:00 26.8 21.5 80 S 4 G 15 30.37 1028.6 0.00
19 01:00 21.3 18.8 27.2 21.1 90 Calm 30.39 1029.2 0.00
19 00:00 22.2 18.9 87 Calm 30.39 1029.3 0.00
18 23:00 21.8 18.3 86 Calm 30.38 1028.7 0.00
18 22:00 24.8 20.7 84 SSW 0 G 5 30.40 1029.6 0.00
18 21:00 25.3 20.9 83 SSW 2 G 6 30.41 1029.8 0.00
18 20:00 26.3 21.8 83 Calm 30.40 1029.3 0.00
18 19:00 26.0 21.6 33.5 25.6 83 Calm 30.38 1028.6 0.00
18 18:00 27.5 21.5 78 Calm 30.34 1027.4 0.00
18 17:00 31.9 23.6 71 Calm 30.31 1026.5 0.00
18 16:00 33.4 23.6 67 W 6 G 8 30.29 1025.8 0.00
18 15:00 31.7 24.0 73 SW 0 G 6 30.26 1024.8 0.00
18 14:00 31.5 24.2 74 NW 0 G 6 30.24 1023.9 0.00
18 13:00 31.3 24.6 34.2 25.8 76 WSW 4 G 7 30.22 1023.4 0.00
18 12:00 33.1 25.4 73 SW 4 G 8 30.20 1022.7 0.00
18 11:00 31.2 24.5 76 WSW 5 G 9 30.21 1023.1 0.00
18 10:00 28.4 23.6 82 W 0 G 1 30.18 1022.2 0.00
18 09:00 27.4 23.5 85 WNW 2 G 6 30.16 1021.2 0.00
18 08:00 26.6 23.5 88 Calm 30.10 1019.3 0.00
18 07:00 25.9 23.6 27.2 25.5 91 WNW 1 G 5 30.05 1017.7 0.00
18 06:00 26.3 24.3 92 WNW 1 G 8 30.02 1016.7 0.00
18 05:00 27.2 25.7 94 Calm 29.98 1015.2 0.00
18 04:00 27.1 25.6 94 Calm 29.94 1013.9 0.00
18 03:00 27.1 25.3 93 Calm 29.93 1013.5 0.00
18 02:00 27.1 25.3 93 SSW 3 G 7 29.92 1013.4 0.00
18 01:00 26.9 24.9 30.2 26.5 92 SSW 4 G 10 29.93 1013.7 0.00
18 00:00 26.6 24.1 90 SSW 1 G 12 29.97 1014.8 0.00
17 23:00 27.0 22.8 84 SSW 4 G 13 30.00 1016.1 0.00
17 22:00 29.5 19.2 65 SSW 4 G 25 30.02 1016.7 0.00
17 21:00 29.9 16.5 57 SSW 8 G 23 30.02 1016.6 0.00
17 20:00 28.2 16.9 62 SSW 4 G 11 30.05 1017.6 0.00
17 19:00 27.7 16.7 30.0 27.7 63 SW 4 G 8 30.07 1018.5 0.00
17 18:00 28.2 13.3 53 SW 0 G 7 30.09 1019.0 0.00
17 17:00 28.8 11.1 47 Calm 30.10 1019.3 0.00
17 16:00 29.8 7.3 38 S 3 G 9 30.13 1020.4 0.00
17 15:00 29.7 8.3 40 SSW 5 G 13 30.18 1022.2 0.00
17 14:00 29.4 10.2 44 S 5 G 13 30.21 1023.0 0.00
17 13:00 28.5 10.3 28.9 6.7 46 SW 7 G 11 30.22 1023.3 0.00
17 12:00 26.4 11.1 52 SW 3 G 12 30.25 1024.6 0.00
17 11:00 25.3 11.0 54 SSW 8 G 15 30.29 1025.8 0.00
17 10:00 22.3 12.0 64 S 3 G 15 30.32 1026.7 0.00
17 09:00 18.1 10.9 73 SSW 4 G 11 30.32 1026.9 0.00
17 08:00 10.3 7.2 87 SSW 0 G 3 30.33 1027.3 0.00
17 07:00 6.7 3.7 13.7 6.7 87 Calm 30.31 1026.3 0.00
17 06:00 9.0 5.9 87 Calm 30.27 1025.2 0.00
17 05:00 10.1 7.0 87 Calm 30.27 1025.1 0.00

Data generated by WxSolution Version 1.9.0.6, Build 2017.01.14.


 
 
Current Radar Loop:

Copyright © WestfordWeather.net 2007-2018. All rights reserved.